.
WxDataArchive / Data Records for 2011-11-14
2011-11-13 November 2011 2011-11-15

Data Records for Monday, 14 November 2011

Time	Temp	Chill	HIndex	Humid	Dewpt	 Wind 	HiWind	WindDir	Rain 	Barom 
-----	----	-----	------	-----	-----	------	------	-------	-----	----- 
00:00	62.7	62.7	62.7	77	55.4	3	9	248	0.00	29.620 
00:05	62.6	62.6	62.6	78	55.6	2	6	248	0.00	29.620 
00:10	62.6	62.6	62.6	78	55.6	2	7	248	0.00	29.620 
00:15	62.6	62.6	62.6	78	55.6	2	5	248	0.00	29.621 
00:20	62.4	62.4	62.4	79	55.8	2	6	270	0.00	29.621 
00:25	62.4	62.4	62.4	79	55.8	1	4	248	0.00	29.621 
00:30	62.3	62.3	62.3	80	56.0	2	5	248	0.00	29.626 
00:35	62.4	62.4	62.4	80	56.1	2	5	248	0.00	29.626 
00:40	62.4	62.4	62.4	80	56.1	3	6	270	0.00	29.626 
00:45	62.3	62.3	62.3	80	56.0	3	5	270	0.00	29.639 
00:50	62.1	62.1	62.1	80	55.9	3	7	248	0.00	29.639 
00:55	62.0	62.0	62.0	81	56.1	2	6	248	0.00	29.639 
01:00	61.6	61.6	61.6	81	55.7	2	5	270	0.00	29.642 
01:05	61.0	61.0	61.0	77	53.7	3	7	248	0.00	29.642 
01:10	60.5	60.5	60.5	73	51.8	2	4	248	0.00	29.642 
01:15	60.1	60.1	60.1	72	51.0	1	5	270	0.00	29.641 
01:20	59.6	59.6	59.6	72	50.6	1	3	270	0.00	29.641 
01:25	59.0	59.0	59.0	62	46.0	2	4	270	0.00	29.641 
01:30	58.7	58.7	58.7	53	41.6	2	3	270	0.00	29.654 
01:35	58.6	58.6	58.6	50	40.0	2	4	270	0.00	29.654 
01:40	58.4	58.4	58.4	46	37.7	2	3	270	0.00	29.654 
01:45	58.3	58.3	58.3	43	35.9	2	3	270	0.00	29.649 
01:50	58.1	58.1	58.1	43	35.7	1	2	270	0.00	29.649 
01:55	57.8	57.8	57.8	41	34.3	1	3	270	0.00	29.649 
02:00	57.6	57.6	57.6	41	34.1	1	2	270	0.00	29.640 
02:05	57.3	57.3	57.3	42	34.4	0	1	270	0.00	29.640 
02:10	57.0	57.0	57.0	41	33.5	0	1	270	0.00	29.640 
02:15	56.9	56.9	56.9	41	33.4	0	3	270	0.00	29.645 
02:20	56.7	56.7	56.7	42	33.9	0	2	270	0.00	29.645 
02:25	56.6	56.6	56.6	42	33.8	0	1	270	0.00	29.645 
02:30	56.5	56.5	56.5	42	33.7	0	1	270	0.00	29.653 
02:35	56.5	56.5	56.5	43	34.3	0	1	270	0.00	29.653 
02:40	56.3	56.3	56.3	42	33.5	0	2	270	0.00	29.653 
02:45	56.5	56.5	56.5	41	33.1	0	1	270	0.00	29.661 
02:50	56.5	56.5	56.5	41	33.1	0	3	270	0.00	29.661 
02:55	56.5	56.5	56.5	40	32.5	0	1	270	0.00	29.661 
03:00	56.5	56.5	56.5	40	32.5	0	1	270	0.00	29.657 
03:05	56.5	56.5	56.5	41	33.1	0	2	270	0.00	29.657 
03:10	56.3	56.3	56.3	42	33.5	0	0	---	0.00	29.657 
03:15	56.0	56.0	56.0	43	33.8	0	0	---	0.00	29.631 
03:20	55.7	55.7	55.7	43	33.6	0	0	---	0.00	29.631 
03:25	55.3	55.3	55.3	44	33.8	0	1	270	0.00	29.631 
03:30	55.0	55.0	55.0	44	33.5	0	0	---	0.00	29.645 
03:35	54.7	54.7	54.7	45	33.8	0	0	---	0.00	29.645 
03:40	54.5	54.5	54.5	44	33.0	0	1	270	0.00	29.645 
03:45	54.5	54.5	54.5	45	33.6	0	1	270	0.00	29.650 
03:50	54.7	54.7	54.7	44	33.2	0	0	---	0.00	29.650 
03:55	54.8	54.8	54.8	44	33.3	0	1	270	0.00	29.650 
04:00	54.8	54.8	54.8	44	33.3	0	0	---	0.00	29.652 
04:05	54.8	54.8	54.8	43	32.7	0	0	---	0.00	29.652 
04:10	54.7	54.7	54.7	43	32.6	0	0	---	0.00	29.652 
04:15	54.5	54.5	54.5	44	33.0	0	0	---	0.00	29.651 
04:20	54.5	54.5	54.5	45	33.6	0	0	---	0.00	29.651 
04:25	54.4	54.4	54.4	44	32.9	0	0	---	0.00	29.651 
04:30	54.2	54.2	54.2	45	33.3	0	0	---	0.00	29.649 
04:35	53.9	53.9	53.9	46	33.6	0	0	---	0.00	29.649 
04:40	53.5	53.5	53.5	47	33.8	0	0	---	0.00	29.649 
04:45	53.2	53.2	53.2	47	33.5	0	0	---	0.00	29.648 
04:50	52.9	52.9	52.9	48	33.7	0	0	---	0.00	29.648 
04:55	52.8	52.8	52.8	50	34.7	0	0	---	0.00	29.648 
05:00	52.5	52.5	52.5	50	34.4	0	0	---	0.00	29.657 
05:05	52.0	52.0	52.0	51	34.4	0	0	---	0.00	29.657 
05:10	51.7	51.7	51.7	52	34.6	0	0	---	0.00	29.657 
05:15	51.6	51.6	51.6	53	35.0	0	0	---	0.00	29.671 
05:20	51.3	51.3	51.3	54	35.2	0	0	---	0.00	29.671 
05:25	51.0	51.0	51.0	54	34.9	0	0	---	0.00	29.671 
05:30	50.7	50.7	50.7	54	34.7	0	0	---	0.00	29.672 
05:35	50.4	50.4	50.4	54	34.4	0	0	---	0.00	29.672 
05:40	50.2	50.2	50.2	57	35.6	0	0	---	0.00	29.672 
05:45	49.9	49.9	49.9	57	35.3	0	0	---	0.00	29.672 
05:50	49.8	49.8	49.8	57	35.2	0	0	---	0.00	29.672 
05:55	49.8	49.8	49.8	59	36.1	0	0	---	0.00	29.672 
06:00	49.8	49.8	49.8	59	36.1	0	0	---	0.00	29.682 
06:05	49.6	49.6	49.6	60	36.3	0	0	---	0.00	29.682 
06:10	49.8	49.8	49.8	61	36.9	0	0	---	0.00	29.682 
06:15	49.8	49.8	49.8	62	37.3	0	0	---	0.00	29.680 
06:20	49.9	49.9	49.9	62	37.4	0	0	---	0.00	29.680 
06:25	50.1	50.1	50.1	62	37.6	0	0	---	0.00	29.680 
06:30	50.1	50.1	50.1	62	37.6	0	0	---	0.00	29.674 
06:35	50.1	50.1	50.1	62	37.6	0	0	---	0.00	29.674 
06:40	50.2	50.2	50.2	61	37.3	0	0	---	0.00	29.674 
06:45	50.2	50.2	50.2	62	37.7	0	0	---	0.00	29.667 
06:50	50.4	50.4	50.4	62	37.9	0	0	---	0.00	29.667 
06:55	50.4	50.4	50.4	61	37.5	0	0	---	0.00	29.667 
07:00	50.4	50.4	50.4	60	37.0	0	0	---	0.00	29.666 
07:05	50.5	50.5	50.5	61	37.6	0	0	---	0.00	29.666 
07:10	50.7	50.7	50.7	63	38.6	0	0	---	0.00	29.666 
07:15	50.7	50.7	50.7	62	38.2	0	0	---	0.00	29.668 
07:20	50.7	50.7	50.7	62	38.2	0	0	---	0.00	29.668 
07:25	50.8	50.8	50.8	65	39.5	0	0	---	0.00	29.668 
07:30	50.8	50.8	50.8	66	39.9	0	0	---	0.00	29.677 
07:35	50.8	50.8	50.8	70	41.4	0	0	---	0.00	29.677 
07:40	50.7	50.7	50.7	73	42.4	0	0	---	0.00	29.677 
07:45	50.5	50.5	50.5	77	43.6	0	0	---	0.01	29.686 
07:50	50.2	50.2	50.2	77	43.3	0	1	270	0.01	29.686 
07:55	49.6	49.6	49.6	77	42.7	0	0	---	0.00	29.686 
08:00	49.4	49.4	49.4	80	43.5	0	2	270	0.01	29.685 
08:05	49.1	49.1	49.1	81	43.5	0	3	270	0.00	29.685 
08:10	48.8	48.8	48.8	82	43.6	0	3	270	0.00	29.685 
08:15	48.6	48.6	48.6	83	43.7	0	2	270	0.01	29.670 
08:20	48.5	48.5	48.5	83	43.6	0	1	270	0.00	29.670 
08:25	48.3	48.3	48.3	83	43.4	0	1	270	0.00	29.670 
08:30	48.2	48.2	48.2	83	43.3	0	0	---	0.00	29.659 
08:35	48.2	48.2	48.2	83	43.3	0	0	---	0.00	29.659 
08:40	48.2	48.2	48.2	83	43.3	0	1	270	0.00	29.659 
08:45	48.2	48.2	48.2	83	43.3	0	1	270	0.00	29.665 
08:50	48.2	48.2	48.2	83	43.3	0	1	270	0.00	29.665 
08:55	48.3	48.3	48.3	83	43.4	0	1	270	0.00	29.665 
09:00	48.5	48.5	48.5	84	43.9	0	1	270	0.00	29.670 
09:05	48.6	48.6	48.6	83	43.7	0	0	---	0.00	29.670 
09:10	48.8	48.8	48.8	84	44.2	0	0	---	0.00	29.670 
09:15	48.9	48.9	48.9	83	44.0	0	0	---	0.00	29.672 
09:20	49.1	49.1	49.1	83	44.2	0	0	---	0.00	29.672 
09:25	49.2	49.2	49.2	83	44.3	0	0	---	0.00	29.672 
09:30	49.4	49.4	49.4	82	44.1	0	0	---	0.00	29.673 
09:35	49.5	49.5	49.5	83	44.6	0	0	---	0.00	29.673 
09:40	49.5	49.5	49.5	82	44.2	0	0	---	0.00	29.673 
09:45	49.6	49.6	49.6	83	44.7	0	0	---	0.00	29.670 
09:50	49.8	49.8	49.8	83	44.8	0	0	---	0.00	29.670 
09:55	50.1	50.1	50.1	82	44.8	0	1	270	0.00	29.670 
10:00	50.2	50.2	50.2	81	44.6	1	3	270	0.00	29.651 
10:05	50.5	50.5	50.5	81	44.9	0	1	270	0.00	29.651 
10:10	50.8	50.8	50.8	81	45.2	0	2	270	0.00	29.651 
10:15	50.8	50.8	50.8	80	44.9	0	2	270	0.00	29.648 
10:20	51.0	51.0	51.0	79	44.7	0	2	270	0.00	29.648 
10:25	51.0	51.0	51.0	79	44.7	0	3	112	0.00	29.648 
10:30	51.0	51.0	51.0	79	44.7	1	3	112	0.00	29.648 
10:35	50.8	50.8	50.8	80	44.9	0	3	135	0.00	29.648 
10:40	50.7	50.7	50.7	81	45.1	1	3	135	0.00	29.648 
10:45	50.7	50.7	50.7	81	45.1	1	3	135	0.00	29.646 
10:50	50.4	50.4	50.4	81	44.8	1	3	135	0.00	29.646 
10:55	50.2	50.2	50.2	83	45.2	0	2	90	0.01	29.646 
11:00	50.1	50.1	50.1	84	45.5	1	3	90	0.00	29.631 
11:05	50.1	50.1	50.1	85	45.8	0	2	90	0.00	29.631 
11:10	49.9	49.9	49.9	86	45.9	1	2	90	0.00	29.631 
11:15	49.8	49.8	49.8	86	45.8	1	4	90	0.00	29.616 
11:20	49.6	49.6	49.6	86	45.6	1	4	90	0.00	29.616 
11:25	49.6	49.6	49.6	86	45.6	2	5	90	0.00	29.616 
11:30	49.6	49.6	49.6	87	45.9	1	4	90	0.00	29.601 
11:35	49.8	49.8	49.8	87	46.1	0	2	90	0.00	29.601 
11:40	49.8	49.8	49.8	88	46.4	0	1	90	0.00	29.601 
11:45	49.8	49.8	49.8	88	46.4	1	3	90	0.00	29.587 
11:50	49.8	49.8	49.8	88	46.4	0	2	90	0.00	29.587 
11:55	49.9	49.9	49.9	89	46.8	2	4	90	0.00	29.587 
12:00	50.1	50.1	50.1	89	47.0	1	4	90	0.00	29.572 
12:05	50.2	50.2	50.2	89	47.1	1	4	90	0.00	29.572 
12:10	50.4	50.4	50.4	90	47.6	1	3	90	0.00	29.572 
12:15	50.8	50.8	50.8	90	48.0	1	4	90	0.00	29.561 
12:20	51.1	51.1	51.1	90	48.3	1	3	68	0.00	29.561 
12:25	51.3	51.3	51.3	90	48.5	2	6	68	0.00	29.561 
12:30	51.3	51.3	51.3	90	48.5	0	4	112	0.00	29.553 
12:35	51.6	51.6	51.6	91	49.1	0	3	112	0.00	29.553 
12:40	51.9	51.9	51.9	91	49.4	0	2	112	0.00	29.553 
12:45	52.2	52.2	52.2	91	49.7	2	4	112	0.00	29.531 
12:50	52.5	52.5	52.5	91	49.9	0	2	112	0.00	29.531 
12:55	52.8	52.8	52.8	91	50.2	0	1	112	0.00	29.531 
13:00	53.1	53.1	53.1	91	50.5	0	4	112	0.00	29.516 
13:05	53.2	53.2	53.2	91	50.6	0	2	112	0.00	29.516 
13:10	53.5	53.5	53.5	92	51.2	0	1	112	0.00	29.516 
13:15	53.8	53.8	53.8	92	51.5	0	0	---	0.00	29.520 
13:20	53.9	53.9	53.9	92	51.6	0	0	---	0.00	29.520 
13:25	54.2	54.2	54.2	92	51.9	0	1	112	0.00	29.520 
13:30	54.7	54.7	54.7	92	52.4	0	1	112	0.00	29.506 
13:35	55.4	55.4	55.4	93	53.4	0	1	112	0.00	29.506 
13:40	56.6	56.6	56.6	94	54.9	1	4	112	0.00	29.506 
13:45	59.2	59.2	59.2	95	57.8	2	9	248	0.00	29.491 
13:50	61.2	61.2	61.2	95	59.8	3	7	248	0.00	29.491 
13:55	62.6	62.6	62.6	93	60.5	3	10	248	0.00	29.491 
14:00	63.4	63.4	63.4	91	60.7	4	12	248	0.01	29.481 
14:05	63.9	63.9	63.9	89	60.6	3	9	270	0.02	29.481 
14:10	63.9	63.9	63.9	89	60.6	2	5	248	0.00	29.481 
14:15	64.0	64.0	64.0	89	60.7	3	10	248	0.00	29.467 
14:20	64.2	64.2	64.2	88	60.6	3	9	248	0.00	29.467 
14:25	64.5	64.5	64.5	88	60.9	4	10	248	0.00	29.467 
14:30	64.8	64.8	64.8	87	60.8	4	7	248	0.01	29.463 
14:35	65.0	65.0	65.0	86	60.7	2	6	248	0.00	29.463 
14:40	65.2	65.2	65.2	85	60.6	4	9	248	0.00	29.463 
14:45	65.6	65.6	65.6	84	60.6	3	10	248	0.00	29.448 
14:50	66.1	66.1	66.1	82	60.4	5	13	248	0.00	29.448 
14:55	66.4	66.4	66.4	81	60.4	4	15	248	0.00	29.448 
15:00	66.8	66.8	66.8	80	60.4	4	13	225	0.00	29.460 
15:05	66.9	66.9	66.9	79	60.2	3	7	248	0.00	29.460 
15:10	62.7	62.7	62.7	72	53.5	4	10	292	0.00	29.460 
15:15	60.2	60.2	60.2	76	52.6	0	4	292	0.00	29.503 
15:20	58.9	58.9	58.9	80	52.7	1	3	292	0.00	29.503 
15:25	57.8	57.8	57.8	83	52.7	1	5	292	0.00	29.503 
15:30	56.9	56.9	56.9	84	52.1	2	6	292	0.00	29.522 
15:35	56.2	56.2	56.2	86	52.1	3	9	338	0.01	29.522 
15:40	55.6	55.6	55.6	88	52.1	4	7	292	0.13	29.522 
15:45	55.4	55.4	55.4	90	52.5	4	9	270	0.10	29.527 
15:50	55.3	55.3	55.3	91	52.7	4	8	270	0.03	29.527 
15:55	55.1	55.1	55.1	91	52.5	4	7	270	0.01	29.527 
16:00	54.8	54.8	54.8	92	52.5	3	6	270	0.01	29.526 
16:05	54.7	54.7	54.7	92	52.4	1	4	315	0.03	29.526 
16:10	54.5	54.5	54.5	92	52.2	0	2	292	0.03	29.526 
16:15	54.5	54.5	54.5	93	52.5	1	3	90	0.03	29.556 
16:20	54.4	54.4	54.4	93	52.4	1	3	90	0.02	29.556 
16:25	54.4	54.4	54.4	93	52.4	2	4	225	0.01	29.556 
16:30	54.2	54.2	54.2	93	52.2	0	2	225	0.02	29.573 
16:35	54.2	54.2	54.2	94	52.5	1	3	225	0.01	29.573 
16:40	54.1	54.1	54.1	94	52.4	1	3	0	0.02	29.573 
16:45	53.6	53.6	53.6	94	51.9	1	4	270	0.02	29.572 
16:50	53.1	53.1	53.1	94	51.4	1	4	270	0.02	29.572 
16:55	52.6	52.6	52.6	94	50.9	0	2	270	0.01	29.572 
17:00	52.3	52.3	52.3	94	50.6	1	3	270	0.01	29.581 
17:05	52.2	52.2	52.2	94	50.5	1	3	270	0.00	29.581 
17:10	51.7	51.7	51.7	94	50.0	0	2	270	0.01	29.581 
17:15	51.6	51.6	51.6	94	49.9	0	1	270	0.01	29.590 
17:20	51.4	51.4	51.4	94	49.7	0	1	270	0.01	29.590 
17:25	51.1	51.1	51.1	94	49.4	0	1	270	0.01	29.590 
17:30	51.0	51.0	51.0	94	49.3	0	1	270	0.00	29.595 
17:35	50.7	50.7	50.7	94	49.0	0	0	---	0.00	29.595 
17:40	50.5	50.5	50.5	94	48.8	0	0	---	0.00	29.595 
17:45	50.5	50.5	50.5	94	48.8	0	0	---	0.00	29.605 
17:50	50.4	50.4	50.4	95	49.0	0	1	270	0.00	29.605 
17:55	50.4	50.4	50.4	95	49.0	0	0	---	0.00	29.605 
18:00	50.2	50.2	50.2	95	48.8	0	0	---	0.00	29.609 
18:05	50.1	50.1	50.1	95	48.7	0	0	---	0.00	29.609 
18:10	49.9	49.9	49.9	95	48.5	0	0	---	0.00	29.609 
18:15	49.9	49.9	49.9	95	48.5	0	1	270	0.00	29.601 
18:20	49.8	49.8	49.8	95	48.4	0	0	---	0.00	29.601 
18:25	49.6	49.6	49.6	95	48.2	0	0	---	0.00	29.601 
18:30	49.4	49.4	49.4	95	48.0	0	0	---	0.00	29.614 
18:35	49.2	49.2	49.2	95	47.8	0	0	---	0.00	29.614 
18:40	49.2	49.2	49.2	95	47.8	0	1	270	0.00	29.614 
18:45	49.1	49.1	49.1	95	47.7	0	1	270	0.00	29.640 
18:50	48.9	48.9	48.9	95	47.5	0	1	270	0.00	29.640 
18:55	48.8	48.8	48.8	95	47.4	0	1	270	0.00	29.640 
19:00	48.5	48.5	48.5	95	47.1	0	1	270	0.00	29.644 
19:05	48.2	48.2	48.2	95	46.8	0	1	270	0.00	29.644 
19:10	48.0	48.0	48.0	95	46.6	0	1	270	0.00	29.644 
19:15	48.0	48.0	48.0	95	46.6	0	2	270	0.00	29.660 
19:20	47.9	47.9	47.9	95	46.5	0	0	---	0.00	29.660 
19:25	47.6	47.6	47.6	95	46.2	0	0	---	0.00	29.660 
19:30	47.4	47.4	47.4	95	46.0	0	0	---	0.00	29.671 
19:35	47.1	47.1	47.1	95	45.7	0	1	270	0.00	29.671 
19:40	47.1	47.1	47.1	95	45.7	0	1	270	0.00	29.671 
19:45	46.8	46.8	46.8	95	45.4	0	0	---	0.00	29.692 
19:50	46.7	46.7	46.7	95	45.3	0	1	270	0.00	29.692 
19:55	46.5	46.5	46.5	95	45.1	0	0	---	0.00	29.692 
20:00	46.2	46.2	46.2	95	44.8	0	0	---	0.00	29.694 
20:05	46.1	46.1	46.1	95	44.7	0	0	---	0.00	29.694 
20:10	46.0	46.0	46.0	95	44.6	0	0	---	0.00	29.694 
20:15	45.7	45.7	45.7	95	44.4	0	0	---	0.00	29.693 
20:20	45.5	45.5	45.5	95	44.2	0	0	---	0.00	29.693 
20:25	45.4	45.4	45.4	95	44.1	0	0	---	0.00	29.693 
20:30	45.2	45.2	45.2	95	43.9	0	0	---	0.00	29.688 
20:35	45.2	45.2	45.2	95	43.9	0	0	---	0.00	29.688 
20:40	45.1	45.1	45.1	95	43.8	0	0	---	0.00	29.688 
20:45	45.1	45.1	45.1	95	43.8	0	0	---	0.00	29.693 
20:50	44.9	44.9	44.9	95	43.6	0	0	---	0.00	29.693 
20:55	44.9	44.9	44.9	96	43.8	0	0	---	0.00	29.693 
21:00	44.9	44.9	44.9	95	43.6	0	0	---	0.00	29.682 
21:05	44.8	44.8	44.8	95	43.5	0	0	---	0.00	29.682 
21:10	44.5	44.5	44.5	95	43.2	0	0	---	0.00	29.682 
21:15	44.3	44.3	44.3	95	43.0	0	0	---	0.00	29.691 
21:20	44.2	44.2	44.2	95	42.9	0	0	---	0.00	29.691 
21:25	44.1	44.1	44.1	96	43.0	0	0	---	0.00	29.691 
21:30	44.1	44.1	44.1	95	42.8	0	0	---	0.00	29.698 
21:35	43.9	43.9	43.9	96	42.8	0	0	---	0.00	29.698 
21:40	43.8	43.8	43.8	95	42.5	0	0	---	0.00	29.698 
21:45	43.6	43.6	43.6	96	42.5	0	0	---	0.00	29.708 
21:50	43.5	43.5	43.5	96	42.4	0	0	---	0.00	29.708 
21:55	43.6	43.6	43.6	96	42.5	0	0	---	0.00	29.708 
22:00	43.8	43.8	43.8	96	42.7	0	0	---	0.00	29.695 
22:05	43.9	43.9	43.9	96	42.8	0	0	---	0.00	29.695 
22:10	43.9	43.9	43.9	96	42.8	0	0	---	0.00	29.695 
22:15	43.9	43.9	43.9	96	42.8	0	0	---	0.00	29.698 
22:20	43.8	43.8	43.8	96	42.7	0	0	---	0.00	29.698 
22:25	43.8	43.8	43.8	96	42.7	0	0	---	0.00	29.698 
22:30	43.8	43.8	43.8	96	42.7	0	0	---	0.00	29.702 
22:35	43.8	43.8	43.8	96	42.7	0	0	---	0.00	29.702 
22:40	43.9	43.9	43.9	96	42.8	0	0	---	0.00	29.702 
22:45	43.9	43.9	43.9	96	42.8	0	0	---	0.00	29.711 
22:50	44.1	44.1	44.1	96	43.0	0	0	---	0.00	29.711 
22:55	44.1	44.1	44.1	96	43.0	0	0	---	0.00	29.711 
23:00	44.2	44.2	44.2	96	43.1	0	0	---	0.00	29.712 
23:05	44.2	44.2	44.2	96	43.1	0	0	---	0.00	29.712 
23:10	44.2	44.2	44.2	96	43.1	0	0	---	0.00	29.712 
23:15	44.2	44.2	44.2	96	43.1	0	0	---	0.00	29.727 
23:20	44.3	44.3	44.3	96	43.2	0	0	---	0.00	29.727 
23:25	44.5	44.5	44.5	96	43.4	0	0	---	0.00	29.727 
23:30	44.5	44.5	44.5	96	43.4	0	0	---	0.00	29.726 
23:35	44.5	44.5	44.5	96	43.4	0	0	---	0.00	29.726 
23:40	44.5	44.5	44.5	96	43.4	0	0	---	0.00	29.726 
23:45	44.5	44.5	44.5	96	43.4	0	0	---	0.00	29.731 
23:50	44.5	44.5	44.5	96	43.4	0	0	---	0.00	29.731 
23:55	44.3	44.3	44.3	96	43.2	0	0	---	0.00	29.731 

CoCoRaHS
IN-AL-39
A2 Web Hosting
Creative Commons License
GoDaddy
search engine by freefind advanced

loaded 2018-11-13 17:04:55 • last modified 2010-11-18 10:43:29
Privacy PolicyDisclaimer
• wx.awcolley.com is powered by PmWiki v.2002016 •
• all content (unless otherwise noted) © 2018 A W Colley